Time;durP1;ratioP1;P1;durP2;ratioP2;P2;SDS_P1;SDS_P2;PMS_P1;PMS_P2;Temp;Humidity;BMP_temperature;BMP_pressure;BME280_temperature;BME280_humidity;BME280_pressure;Samples;Min_cycle;Max_cycle;Signal;HPM_P1;HPM_P2
2023/09/09 00:01:29;;;;;;;10.98;9.95;;;18.70;99.90;;;;;;5032445;28;20239;-32
2023/09/09 00:03:58;;;;;;;11.75;10.13;;;18.60;99.90;;;;;;5051546;28;20205;-32
2023/09/09 00:06:24;;;;;;;10.68;9.68;;;18.50;99.90;;;;;;5033007;28;20189;-31
2023/09/09 00:08:50;;;;;;;11.85;10.48;;;18.50;99.90;;;;;;5047170;28;20186;-32
2023/09/09 00:11:16;;;;;;;11.52;10.43;;;18.50;99.90;;;;;;5052279;28;20189;-32
2023/09/09 00:13:41;;;;;;;12.23;10.43;;;18.40;99.90;;;;;;5026644;28;20195;-32
2023/09/09 00:16:09;;;;;;;11.98;10.77;;;18.40;99.90;;;;;;5029308;28;20185;-32
2023/09/09 00:18:35;;;;;;;11.65;10.50;;;18.50;99.90;;;;;;5058197;28;20190;-32
2023/09/09 00:21:00;;;;;;;12.02;10.82;;;18.40;99.90;;;;;;5040578;28;20177;-33
2023/09/09 00:23:27;;;;;;;12.18;10.93;;;18.40;99.90;;;;;;5027158;28;20232;-32
2023/09/09 00:25:52;;;;;;;11.38;9.90;;;18.40;99.90;;;;;;5033248;28;20272;-32
2023/09/09 00:28:20;;;;;;;11.73;10.18;;;18.30;99.90;;;;;;5051892;28;20187;-31
2023/09/09 00:30:46;;;;;;;11.63;10.43;;;18.30;99.90;;;;;;5043760;28;20193;-32
2023/09/09 00:33:12;;;;;;;12.13;10.82;;;18.20;99.90;;;;;;5058618;28;20181;-32
2023/09/09 00:35:39;;;;;;;12.02;10.20;;;18.20;99.90;;;;;;5520200;22;20264;-33
2023/09/09 00:38:07;;;;;;;10.95;9.90;;;18.20;99.90;;;;;;5067845;28;20182;-36
2023/09/09 00:40:33;;;;;;;11.50;10.38;;;18.30;99.90;;;;;;5044547;28;20186;-37
2023/09/09 00:42:59;;;;;;;13.45;10.07;;;18.30;99.90;;;;;;5050656;28;20255;-36
2023/09/09 00:45:28;;;;;;;10.77;9.68;;;18.20;99.90;;;;;;5049509;28;20202;-35
2023/09/09 00:47:55;;;;;;;10.98;9.55;;;18.20;99.90;;;;;;5057700;28;20217;-35
2023/09/09 00:50:22;;;;;;;11.38;10.27;;;18.10;99.90;;;;;;5025334;28;20188;-34
2023/09/09 00:52:48;;;;;;;11.18;9.95;;;18.10;99.90;;;;;;5050739;28;20178;-37
2023/09/09 00:55:14;;;;;;;11.57;9.80;;;18.10;99.90;;;;;;5047124;28;20208;-36
2023/09/09 00:57:40;;;;;;;11.98;9.93;;;18.10;99.90;;;;;;5029043;28;20170;-34
2023/09/09 01:00:10;;;;;;;11.85;10.45;;;18.10;99.90;;;;;;5050646;28;20236;-33
2023/09/09 01:02:40;;;;;;;11.48;10.43;;;18.00;99.90;;;;;;5050374;28;20267;-36
2023/09/09 01:05:07;;;;;;;11.32;10.05;;;18.00;99.90;;;;;;5024155;28;20288;-33
2023/09/09 01:07:46;;;;;;;12.75;9.93;;;18.00;99.90;;;;;;5050990;28;20170;-34
2023/09/09 01:10:13;;;;;;;9.93;8.95;;;18.00;99.90;;;;;;5050614;28;20188;-33
2023/09/09 01:12:39;;;;;;;10.98;9.90;;;17.90;99.90;;;;;;5048326;28;20178;-36
2023/09/09 01:15:06;;;;;;;11.95;10.75;;;17.90;99.90;;;;;;5039069;28;20289;-37
2023/09/09 01:17:34;;;;;;;12.35;11.15;;;17.90;99.90;;;;;;5046717;28;20190;-38
2023/09/09 01:20:02;;;;;;;13.68;10.80;;;17.90;99.90;;;;;;5030859;28;20185;-36
2023/09/09 01:22:33;;;;;;;12.25;11.10;;;17.90;99.90;;;;;;5049778;28;20212;-37
2023/09/09 01:25:00;;;;;;;12.25;11.15;;;17.90;99.90;;;;;;5015124;28;20277;-35
2023/09/09 01:27:25;;;;;;;12.30;11.00;;;17.90;99.90;;;;;;5020626;28;20175;-34
2023/09/09 01:29:51;;;;;;;12.95;11.73;;;17.90;99.90;;;;;;5031453;28;20174;-33
2023/09/09 01:32:17;;;;;;;12.05;10.70;;;17.90;99.90;;;;;;5033254;28;20178;-36
2023/09/09 01:34:43;;;;;;;12.18;10.05;;;17.90;99.90;;;;;;5024472;28;20202;-38
2023/09/09 01:37:09;;;;;;;13.10;10.75;;;17.90;99.90;;;;;;5050054;28;20201;-37
2023/09/09 01:39:34;;;;;;;11.88;10.77;;;17.90;99.90;;;;;;5031167;28;20204;-35
2023/09/09 01:42:00;;;;;;;12.57;11.27;;;17.80;99.90;;;;;;5025723;28;20181;-33
2023/09/09 01:44:26;;;;;;;13.32;10.88;;;17.80;99.90;;;;;;5043896;28;20218;-34
2023/09/09 01:46:52;;;;;;;13.00;11.70;;;17.70;99.90;;;;;;5048367;28;20174;-36
2023/09/09 01:49:18;;;;;;;11.85;10.75;;;17.70;99.90;;;;;;5018040;28;20185;-36
2023/09/09 01:51:43;;;;;;;12.85;11.50;;;17.70;99.90;;;;;;5020457;28;20183;-33
2023/09/09 01:54:09;;;;;;;10.85;9.77;;;17.60;99.90;;;;;;5032222;28;20178;-36
2023/09/09 01:56:35;;;;;;;13.82;11.20;;;17.50;99.90;;;;;;5050069;28;20189;-36
2023/09/09 01:59:01;;;;;;;13.70;11.77;;;17.40;99.90;;;;;;5033106;28;20178;-34
2023/09/09 02:01:26;;;;;;;12.43;11.13;;;17.40;99.90;;;;;;5048780;28;20196;-34
2023/09/09 02:03:52;;;;;;;17.02;12.68;;;17.40;99.90;;;;;;5043564;28;20210;-34
2023/09/09 02:06:19;;;;;;;12.75;11.40;;;17.40;99.90;;;;;;5033077;28;20197;-34
2023/09/09 02:08:44;;;;;;;13.27;11.90;;;17.40;99.90;;;;;;5032122;28;20312;-33
2023/09/09 02:11:10;;;;;;;13.82;11.80;;;17.50;99.90;;;;;;5049108;28;20265;-35
2023/09/09 02:13:36;;;;;;;14.27;12.05;;;17.50;99.90;;;;;;5026295;28;20192;-33
2023/09/09 02:16:06;;;;;;;14.68;13.18;;;17.50;99.90;;;;;;5031677;28;20201;-35
2023/09/09 02:18:32;;;;;;;13.35;12.07;;;17.60;99.90;;;;;;5049529;28;20280;-35
2023/09/09 02:20:59;;;;;;;13.60;12.20;;;17.50;99.90;;;;;;5025164;28;20182;-35
2023/09/09 02:23:25;;;;;;;15.20;13.52;;;17.50;99.90;;;;;;5049208;28;20214;-33
2023/09/09 02:25:51;;;;;;;13.57;12.15;;;17.50;99.90;;;;;;5049386;28;20208;-35
2023/09/09 02:28:19;;;;;;;14.48;12.98;;;17.50;99.90;;;;;;5048920;28;20639;-33
2023/09/09 02:30:45;;;;;;;12.98;11.57;;;17.50;99.90;;;;;;5027057;28;20183;-34
2023/09/09 02:33:12;;;;;;;14.63;13.13;;;17.50;99.90;;;;;;5048885;28;20174;-33
2023/09/09 02:35:42;;;;;;;12.85;11.57;;;17.50;99.90;;;;;;5048891;28;20308;-36
2023/09/09 02:38:08;;;;;;;13.70;12.32;;;17.50;99.90;;;;;;5048311;28;20244;-37
2023/09/09 02:40:35;;;;;;;13.77;12.38;;;17.50;99.90;;;;;;5032710;28;20178;-38
2023/09/09 02:43:00;;;;;;;13.90;12.25;;;17.50;99.90;;;;;;5047841;28;20259;-34
2023/09/09 02:45:26;;;;;;;13.05;11.80;;;17.50;99.90;;;;;;5049093;28;20202;-31
2023/09/09 02:47:52;;;;;;;12.50;11.20;;;17.50;99.90;;;;;;5030325;28;20173;-31
2023/09/09 02:50:19;;;;;;;13.27;12.02;;;17.50;99.90;;;;;;5026913;28;20178;-34
2023/09/09 02:52:47;;;;;;;13.13;11.68;;;17.50;99.90;;;;;;5047794;28;20231;-39
2023/09/09 02:55:13;;;;;;;12.07;10.88;;;17.50;99.90;;;;;;5014185;28;20260;-35
2023/09/09 02:57:49;;;;;;;13.02;11.60;;;17.40;99.90;;;;;;5019196;28;20182;-35
2023/09/09 03:00:21;;;;;;;14.13;11.32;;;17.40;99.90;;;;;;5039335;28;20186;-33
2023/09/09 03:02:49;;;;;;;13.20;11.55;;;17.40;99.90;;;;;;5022519;28;20273;-36
2023/09/09 03:05:16;;;;;;;12.73;11.43;;;17.50;99.90;;;;;;5019859;28;20198;-36
2023/09/09 03:07:45;;;;;;;12.63;11.45;;;17.40;99.90;;;;;;5020373;28;20185;-36
2023/09/09 03:10:11;;;;;;;12.52;11.30;;;17.40;99.90;;;;;;5049036;28;20178;-36
2023/09/09 03:12:37;;;;;;;13.85;12.30;;;17.40;99.90;;;;;;5048800;28;20188;-32
2023/09/09 03:15:05;;;;;;;15.20;12.05;;;17.30;99.90;;;;;;5048592;28;20280;-34
2023/09/09 03:17:32;;;;;;;14.80;12.90;;;17.30;99.90;;;;;;5048440;28;20189;-34
2023/09/09 03:19:58;;;;;;;13.45;11.98;;;17.30;99.90;;;;;;5032942;28;20194;-34
2023/09/09 03:22:24;;;;;;;14.73;12.23;;;17.30;99.90;;;;;;5048524;28;20184;-37
2023/09/09 03:24:51;;;;;;;13.43;12.07;;;17.20;99.90;;;;;;5048860;28;20232;-33
2023/09/09 03:27:17;;;;;;;12.82;11.55;;;17.20;99.90;;;;;;5049570;28;20174;-34
2023/09/09 03:29:43;;;;;;;14.93;11.75;;;17.20;99.90;;;;;;5052587;28;20170;-36
2023/09/09 03:32:09;;;;;;;14.75;13.05;;;17.10;99.90;;;;;;5052855;28;20208;-31
2023/09/09 03:34:35;;;;;;;13.15;11.85;;;17.10;99.90;;;;;;5036174;28;20251;-32
2023/09/09 03:37:01;;;;;;;12.93;11.48;;;17.10;99.90;;;;;;5052693;28;20201;-31
2023/09/09 03:39:28;;;;;;;13.30;11.93;;;17.10;99.90;;;;;;5052620;28;20276;-33
2023/09/09 03:41:54;;;;;;;14.00;12.50;;;17.10;99.90;;;;;;5044289;28;20302;-32
2023/09/09 03:44:20;;;;;;;14.00;12.20;;;17.00;99.90;;;;;;5049166;28;20217;-31
2023/09/09 03:46:45;;;;;;;13.18;11.98;;;17.00;99.90;;;;;;5051836;28;20174;-37
2023/09/09 03:49:11;;;;;;;14.23;12.75;;;17.00;99.90;;;;;;5024595;28;20184;-34
2023/09/09 03:51:37;;;;;;;14.10;12.60;;;17.00;99.90;;;;;;5052455;28;20178;-34
2023/09/09 03:54:03;;;;;;;13.15;11.90;;;16.90;99.90;;;;;;5052152;28;20193;-38
2023/09/09 03:56:29;;;;;;;13.27;11.98;;;16.80;99.90;;;;;;5035313;28;20182;-35
2023/09/09 03:58:55;;;;;;;12.20;10.95;;;16.80;99.90;;;;;;5026545;28;20185;-34
2023/09/09 04:01:21;;;;;;;13.27;11.52;;;16.80;99.90;;;;;;5050870;28;20224;-34
2023/09/09 04:03:46;;;;;;;13.05;11.07;;;16.70;99.90;;;;;;5050166;28;20205;-34
2023/09/09 04:06:17;;;;;;;14.48;12.23;;;16.70;99.90;;;;;;5052272;28;20198;-35
2023/09/09 04:08:43;;;;;;;13.00;11.75;;;16.70;99.90;;;;;;5051518;28;20243;-35
2023/09/09 04:11:10;;;;;;;14.63;11.38;;;16.60;99.90;;;;;;5025382;28;20258;-35
2023/09/09 04:13:38;;;;;;;12.13;10.85;;;16.60;99.90;;;;;;5028081;28;20452;-31
2023/09/09 04:16:04;;;;;;;13.30;12.00;;;16.60;99.90;;;;;;5042871;28;20205;-35
2023/09/09 04:18:30;;;;;;;11.95;10.85;;;16.50;99.90;;;;;;5051062;28;20178;-37
2023/09/09 04:20:56;;;;;;;12.98;11.57;;;16.50;99.90;;;;;;5027228;28;20194;-34
2023/09/09 04:23:22;;;;;;;14.18;12.15;;;16.50;99.90;;;;;;5051274;28;20207;-34
2023/09/09 04:25:48;;;;;;;15.05;13.45;;;16.50;99.90;;;;;;5043578;28;20206;-32
2023/09/09 04:28:14;;;;;;;15.20;13.70;;;16.50;99.90;;;;;;5035493;28;20189;-33
2023/09/09 04:30:42;;;;;;;14.52;12.95;;;16.50;99.90;;;;;;5043760;28;20227;-34
2023/09/09 04:33:12;;;;;;;15.82;14.23;;;16.50;99.90;;;;;;5042504;28;20190;-32
2023/09/09 04:35:44;;;;;;;15.40;13.90;;;16.50;99.90;;;;;;5042487;28;20224;-33
2023/09/09 04:38:11;;;;;;;14.55;13.15;;;16.50;99.90;;;;;;5051379;28;20174;-32
2023/09/09 04:40:39;;;;;;;15.88;14.07;;;16.50;99.90;;;;;;5050558;28;20192;-34
2023/09/09 04:43:05;;;;;;;15.02;13.52;;;16.50;99.90;;;;;;5049884;28;20243;-35
2023/09/09 04:45:31;;;;;;;16.10;13.32;;;16.50;99.90;;;;;;5032999;28;20209;-34
2023/09/09 04:47:57;;;;;;;15.10;13.32;;;16.60;99.90;;;;;;5032990;28;20178;-33
2023/09/09 04:50:24;;;;;;;13.70;12.38;;;16.60;99.90;;;;;;5033732;28;20190;-32
2023/09/09 04:52:50;;;;;;;15.95;13.07;;;16.50;99.90;;;;;;5034616;28;20196;-34
2023/09/09 04:55:16;;;;;;;14.52;13.13;;;16.50;99.90;;;;;;5050931;28;20295;-36
2023/09/09 04:57:42;;;;;;;13.80;12.50;;;16.40;99.90;;;;;;5031694;28;20178;-31
2023/09/09 05:00:10;;;;;;;15.18;13.55;;;16.40;99.90;;;;;;5042496;28;20221;-31
2023/09/09 05:02:39;;;;;;;14.70;12.68;;;16.50;99.90;;;;;;5022297;28;20201;-35
2023/09/09 05:05:07;;;;;;;14.50;12.57;;;16.40;99.90;;;;;;5043164;28;20271;-35
2023/09/09 05:07:36;;;;;;;14.18;12.75;;;16.40;99.90;;;;;;5028983;28;20208;-32
2023/09/09 05:10:04;;;;;;;13.23;11.98;;;16.40;99.90;;;;;;5025603;28;20183;-34
2023/09/09 05:12:33;;;;;;;14.85;12.70;;;16.40;99.90;;;;;;5051065;28;20276;-35
2023/09/09 05:15:00;;;;;;;16.48;13.23;;;16.40;99.90;;;;;;5048418;28;20214;-36
2023/09/09 05:17:26;;;;;;;15.25;13.75;;;16.40;99.90;;;;;;5020992;28;20200;-30
2023/09/09 05:19:52;;;;;;;14.38;12.88;;;16.40;99.90;;;;;;5049952;28;20178;-31
2023/09/09 05:22:18;;;;;;;15.35;13.40;;;16.50;99.90;;;;;;5050013;28;20197;-35
2023/09/09 05:24:44;;;;;;;15.57;13.80;;;16.50;99.90;;;;;;5050552;28;20741;-34
2023/09/09 05:27:10;;;;;;;14.82;13.45;;;16.50;99.90;;;;;;5046886;28;20179;-34
2023/09/09 05:29:36;;;;;;;17.98;14.73;;;16.50;99.90;;;;;;5032101;28;20188;-32
2023/09/09 05:32:03;;;;;;;16.00;14.40;;;16.50;99.90;;;;;;5048308;28;20178;-31
2023/09/09 05:34:29;;;;;;;15.90;14.30;;;16.50;99.90;;;;;;5050307;28;20220;-37
2023/09/09 05:36:54;;;;;;;15.50;13.90;;;16.50;99.90;;;;;;5050100;28;20197;-35
2023/09/09 05:39:20;;;;;;;14.90;13.40;;;16.50;99.90;;;;;;5048865;28;20198;-32
2023/09/09 05:41:46;;;;;;;15.88;14.30;;;16.60;99.90;;;;;;5043701;28;20265;-34
2023/09/09 05:44:13;;;;;;;17.20;14.95;;;16.60;99.90;;;;;;5027414;28;20292;-32
2023/09/09 05:46:39;;;;;;;15.70;14.20;;;16.70;99.90;;;;;;5047532;28;20256;-37
2023/09/09 05:49:05;;;;;;;16.00;14.48;;;16.70;99.90;;;;;;5048536;28;20201;-35
2023/09/09 05:51:32;;;;;;;14.88;13.27;;;16.90;99.90;;;;;;5044585;28;20204;-33
2023/09/09 05:54:00;;;;;;;15.90;14.30;;;17.00;99.90;;;;;;5051682;28;20182;-34
2023/09/09 05:56:27;;;;;;;15.13;13.73;;;17.10;99.90;;;;;;5047445;28;20284;-34
2023/09/09 05:58:53;;;;;;;15.25;13.82;;;17.20;99.90;;;;;;5047827;28;20204;-33
2023/09/09 06:01:20;;;;;;;14.70;13.32;;;17.30;99.90;;;;;;5049677;28;20190;-32
2023/09/09 06:03:46;;;;;;;15.95;14.35;;;17.40;99.90;;;;;;5048362;28;20210;-32
2023/09/09 06:06:12;;;;;;;15.40;13.77;;;17.50;99.90;;;;;;5041585;28;20194;-33
2023/09/09 06:08:38;;;;;;;15.35;13.75;;;17.60;99.90;;;;;;5033297;28;20235;-34
2023/09/09 06:11:03;;;;;;;15.18;13.57;;;17.70;99.90;;;;;;5047837;28;20186;-31
2023/09/09 06:13:30;;;;;;;15.95;13.60;;;17.80;99.90;;;;;;5027949;28;20174;-31
2023/09/09 06:15:57;;;;;;;16.85;14.20;;;17.90;99.90;;;;;;5030505;28;20214;-33
2023/09/09 06:18:22;;;;;;;15.48;13.77;;;18.00;99.90;;;;;;5045924;28;20174;-33
2023/09/09 06:20:52;;;;;;;16.33;14.57;;;18.00;99.90;;;;;;5029825;28;20182;-37
2023/09/09 06:23:18;;;;;;;16.20;14.48;;;18.10;99.90;;;;;;5049182;28;20197;-31
2023/09/09 06:25:44;;;;;;;17.23;15.52;;;18.20;99.90;;;;;;5014849;28;20198;-35
2023/09/09 06:28:11;;;;;;;16.60;14.88;;;18.30;99.90;;;;;;5039686;28;20189;-36
2023/09/09 06:30:43;;;;;;;14.85;13.35;;;18.40;99.90;;;;;;5032483;28;20189;-31
2023/09/09 06:33:10;;;;;;;15.63;13.68;;;18.50;99.90;;;;;;5046923;28;20182;-32
2023/09/09 06:35:37;;;;;;;17.13;14.60;;;18.50;99.90;;;;;;5014812;28;20217;-32
2023/09/09 06:38:04;;;;;;;15.15;13.55;;;18.70;99.90;;;;;;5031628;28;20201;-30
2023/09/09 06:40:32;;;;;;;15.23;13.70;;;18.70;99.90;;;;;;5032196;28;20178;-33
2023/09/09 06:42:58;;;;;;;15.57;14.15;;;18.80;99.90;;;;;;5048163;28;20288;-37
2023/09/09 06:45:24;;;;;;;15.73;14.13;;;18.80;99.90;;;;;;5029177;28;20209;-35
2023/09/09 06:47:50;;;;;;;15.75;14.20;;;18.80;99.90;;;;;;5048771;28;20178;-33
2023/09/09 06:50:16;;;;;;;15.90;14.32;;;18.90;99.90;;;;;;5043388;28;20261;-38
2023/09/09 06:52:41;;;;;;;16.98;14.55;;;19.00;99.90;;;;;;5050851;28;20257;-36
2023/09/09 06:55:08;;;;;;;16.20;14.35;;;19.10;99.90;;;;;;5048252;28;20202;-38
2023/09/09 06:57:34;;;;;;;14.93;13.52;;;19.20;99.90;;;;;;5027304;28;20185;-38
2023/09/09 07:00:00;;;;;;;16.60;14.90;;;19.30;99.90;;;;;;5049119;28;20185;-35
2023/09/09 07:02:26;;;;;;;15.38;13.90;;;19.40;99.90;;;;;;5050130;28;20178;-36
2023/09/09 07:04:53;;;;;;;17.02;15.27;;;19.50;99.90;;;;;;5053678;28;20209;-38
2023/09/09 07:07:19;;;;;;;15.68;14.07;;;19.60;99.90;;;;;;5045655;28;20197;-38
2023/09/09 07:09:45;;;;;;;15.65;14.18;;;19.70;99.90;;;;;;5053576;28;20181;-35
2023/09/09 07:12:11;;;;;;;15.73;13.43;;;19.80;99.90;;;;;;5050261;28;20186;-38
2023/09/09 07:14:37;;;;;;;15.55;13.98;;;19.90;99.90;;;;;;5028690;28;20201;-38
2023/09/09 07:17:03;;;;;;;14.43;13.02;;;19.90;99.90;;;;;;5055324;28;20281;-38
2023/09/09 07:19:29;;;;;;;14.68;12.95;;;20.00;99.90;;;;;;5053192;28;20189;-38
2023/09/09 07:21:55;;;;;;;14.90;13.15;;;20.10;99.90;;;;;;5052677;28;20194;-38
2023/09/09 07:24:21;;;;;;;14.32;12.80;;;20.10;99.90;;;;;;5025075;28;20210;-37
2023/09/09 07:26:47;;;;;;;14.80;13.40;;;20.20;99.90;;;;;;5024057;28;20192;-38
2023/09/09 07:29:13;;;;;;;15.80;13.77;;;20.30;99.90;;;;;;5052775;28;20644;-36
2023/09/09 07:31:39;;;;;;;15.18;13.57;;;20.30;99.90;;;;;;5052733;28;20308;-37
2023/09/09 07:34:05;;;;;;;13.90;12.60;;;20.40;99.90;;;;;;5052798;28;20189;-36
2023/09/09 07:36:31;;;;;;;13.75;12.45;;;20.50;99.90;;;;;;5052674;28;20297;-38
2023/09/09 07:38:56;;;;;;;15.32;12.88;;;20.60;99.90;;;;;;5052661;28;20199;-38
2023/09/09 07:41:22;;;;;;;14.15;12.77;;;20.80;99.90;;;;;;5028233;28;20178;-38
2023/09/09 07:43:48;;;;;;;13.65;12.25;;;20.90;99.90;;;;;;5028646;28;20291;-39
2023/09/09 07:46:15;;;;;;;12.63;11.38;;;21.10;99.90;;;;;;5032722;28;20202;-38
2023/09/09 07:48:41;;;;;;;15.60;13.13;;;21.20;99.90;;;;;;5047238;28;20174;-38
2023/09/09 07:51:07;;;;;;;14.30;12.93;;;21.30;99.90;;;;;;5034200;28;20227;-35
2023/09/09 07:53:33;;;;;;;14.00;12.45;;;21.40;99.90;;;;;;5052189;28;20186;-38
2023/09/09 07:55:59;;;;;;;13.77;12.38;;;21.50;99.90;;;;;;5052457;28;20216;-38
2023/09/09 07:58:25;;;;;;;14.15;12.50;;;21.60;99.90;;;;;;5052383;28;20229;-38
2023/09/09 08:01:05;;;;;;;14.32;12.82;;;21.70;99.90;;;;;;5035748;28;20193;-39
2023/09/09 08:03:31;;;;;;;15.68;11.85;;;21.80;99.90;;;;;;5028689;28;20208;-37
2023/09/09 08:06:01;;;;;;;14.18;12.88;;;21.90;99.90;;;;;;5051963;28;20281;-38
2023/09/09 08:08:27;;;;;;;13.35;11.75;;;22.00;99.90;;;;;;5052309;28;20174;-39
2023/09/09 08:10:52;;;;;;;13.20;12.00;;;22.10;99.90;;;;;;5035557;28;20236;-38
2023/09/09 08:13:18;;;;;;;12.52;11.27;;;22.20;99.90;;;;;;5051886;28;20240;-39
2023/09/09 08:15:44;;;;;;;13.32;11.77;;;22.30;99.90;;;;;;5035509;28;20201;-38
2023/09/09 08:18:11;;;;;;;13.13;10.50;;;22.40;99.90;;;;;;5051904;28;20174;-37
2023/09/09 08:20:37;;;;;;;13.30;11.80;;;22.60;99.90;;;;;;5051897;28;20182;-40
2023/09/09 08:23:03;;;;;;;13.63;12.32;;;22.80;99.90;;;;;;5051127;28;20221;-41
2023/09/09 08:25:32;;;;;;;13.52;12.23;;;22.80;99.90;;;;;;5051924;28;20206;-38
2023/09/09 08:28:03;;;;;;;12.52;11.27;;;22.90;99.90;;;;;;5045062;28;20174;-41
2023/09/09 08:30:32;;;;;;;12.65;11.35;;;22.90;99.90;;;;;;5027595;28;20189;-39
2023/09/09 08:32:58;;;;;;;11.77;10.77;;;23.10;99.90;;;;;;5050961;28;20189;-35
2023/09/09 08:35:24;;;;;;;11.35;10.27;;;23.20;99.90;;;;;;5051813;28;20204;-41
2023/09/09 08:37:50;;;;;;;11.82;10.73;;;23.40;99.90;;;;;;5051893;28;20186;-40
2023/09/09 08:40:16;;;;;;;10.77;9.77;;;23.60;99.90;;;;;;5051547;28;20215;-38
2023/09/09 08:43:02;;;;;;;11.55;10.38;;;23.80;99.90;;;;;;5051136;28;20316;-41
2023/09/09 08:46:03;;;;;;;12.80;11.50;;;23.90;99.90;;;;;;5051339;28;20298;-39
2023/09/09 08:48:33;;;;;;;12.98;11.65;;;24.10;99.90;;;;;;5043967;28;20178;-40
2023/09/09 08:51:03;;;;;;;11.73;10.63;;;24.10;99.90;;;;;;5051530;28;20185;-37
2023/09/09 08:53:35;;;;;;;10.60;9.55;;;24.30;99.90;;;;;;5027396;28;20273;-39
2023/09/09 08:56:04;;;;;;;11.65;10.20;;;24.40;99.90;;;;;;5032646;28;20202;-41
2023/09/09 08:58:31;;;;;;;11.18;10.18;;;24.50;99.90;;;;;;5051401;28;20186;-34
2023/09/09 09:00:58;;;;;;;9.98;9.18;;;24.70;99.90;;;;;;5048891;28;20188;-40
2023/09/09 09:03:24;;;;;;;11.57;10.48;;;24.90;99.90;;;;;;5045529;28;20206;-40
2023/09/09 09:05:53;;;;;;;11.18;10.23;;;25.00;99.90;;;;;;5019534;28;20247;-41
2023/09/09 09:08:19;;;;;;;15.68;10.38;;;25.10;99.90;;;;;;5050349;28;20182;-42
2023/09/09 09:10:48;;;;;;;10.88;9.88;;;25.10;99.90;;;;;;5049649;28;20181;-42
2023/09/09 09:13:14;;;;;;;10.20;9.20;;;25.20;99.90;;;;;;5048997;28;20208;-41
2023/09/09 09:15:41;;;;;;;11.02;10.02;;;25.30;99.90;;;;;;5044509;28;20274;-42
2023/09/09 09:18:10;;;;;;;11.20;10.20;;;25.40;99.90;;;;;;5031222;28;20202;-38
2023/09/09 09:20:40;;;;;;;11.00;9.93;;;25.50;99.90;;;;;;5023155;28;20181;-40
2023/09/09 09:23:10;;;;;;;10.93;9.93;;;25.70;99.90;;;;;;5047724;28;20201;-41
2023/09/09 09:25:39;;;;;;;10.00;9.10;;;25.70;99.90;;;;;;5050410;28;20190;-40
2023/09/09 09:28:05;;;;;;;10.13;9.15;;;25.90;99.90;;;;;;5033978;28;20180;-39
2023/09/09 09:30:33;;;;;;;8.98;8.27;;;26.00;99.90;;;;;;5042840;28;20205;-37
2023/09/09 09:32:59;;;;;;;10.52;9.55;;;26.20;99.90;;;;;;5050674;28;20190;-41
2023/09/09 09:35:29;;;;;;;10.32;9.43;;;26.40;99.90;;;;;;5034096;28;20209;-37
2023/09/09 09:38:13;;;;;;;11.13;10.15;;;26.50;99.90;;;;;;5050394;28;20185;-35
2023/09/09 09:40:40;;;;;;;10.43;9.43;;;26.60;99.90;;;;;;5050888;28;20181;-42
2023/09/09 09:43:17;;;;;;;9.88;9.00;;;26.70;99.90;;;;;;5025050;28;20214;-40
2023/09/09 09:45:43;;;;;;;9.85;8.85;;;26.90;99.90;;;;;;5044183;28;20239;-42
2023/09/09 09:48:08;;;;;;;9.95;9.05;;;27.00;99.90;;;;;;5049519;28;20186;-41
2023/09/09 09:50:35;;;;;;;9.57;8.52;;;27.20;99.90;;;;;;5042849;28;20170;-41
2023/09/09 09:53:06;;;;;;;10.07;9.07;;;27.30;99.90;;;;;;5033476;28;20276;-42
2023/09/09 09:55:35;;;;;;;10.07;9.18;;;27.50;99.90;;;;;;5018068;28;20201;-40
2023/09/09 09:58:05;;;;;;;9.73;8.93;;;27.60;99.90;;;;;;5050239;28;20230;-38
2023/09/09 10:00:32;;;;;;;8.73;8.02;;;27.70;99.90;;;;;;5025803;28;20174;-38
2023/09/09 10:03:00;;;;;;;9.75;8.23;;;27.70;99.90;;;;;;5058031;28;20197;-37
2023/09/09 10:05:27;;;;;;;8.85;8.13;;;27.80;99.90;;;;;;5033356;28;20244;-41
2023/09/09 10:08:14;;;;;;;9.15;8.35;;;27.80;99.90;;;;;;5049397;28;20178;-39
2023/09/09 10:10:48;;;;;;;8.90;8.10;;;27.80;99.90;;;;;;5026614;28;20196;-42
2023/09/09 10:13:23;;;;;;;8.85;8.05;;;27.90;99.90;;;;;;5048297;28;20224;-40
2023/09/09 10:15:49;;;;;;;8.30;7.50;;;28.00;99.90;;;;;;5044237;28;20266;-41
2023/09/09 10:18:16;;;;;;;7.95;7.25;;;28.10;99.90;;;;;;5049877;28;20190;-40
2023/09/09 10:20:42;;;;;;;8.38;7.40;;;28.30;99.90;;;;;;5049635;28;20174;-42
2023/09/09 10:23:09;;;;;;;7.72;7.07;;;28.30;99.90;;;;;;5048656;28;20201;-42
2023/09/09 10:25:38;;;;;;;8.90;8.00;;;28.40;99.90;;;;;;5042036;28;20198;-42
2023/09/09 10:28:06;;;;;;;8.50;7.80;;;28.50;99.90;;;;;;5033110;28;20257;-41
2023/09/09 10:30:34;;;;;;;7.85;7.13;;;28.40;99.90;;;;;;5048849;28;20174;-41
2023/09/09 10:33:01;;;;;;;8.60;7.75;;;28.60;99.90;;;;;;5032968;28;20174;-40
2023/09/09 10:35:28;;;;;;;8.38;7.57;;;28.60;99.90;;;;;;5049340;28;20209;-42
2023/09/09 10:37:56;;;;;;;8.52;7.78;;;28.70;99.90;;;;;;5048699;28;20186;-38
2023/09/09 10:40:24;;;;;;;8.38;7.65;;;28.70;99.90;;;;;;5040956;28;20178;-42
2023/09/09 10:42:51;;;;;;;9.20;7.60;;;28.90;99.90;;;;;;5026781;28;20209;-40
2023/09/09 10:45:31;;;;;;;8.23;7.43;;;29.00;99.90;;;;;;5047573;28;20193;-39
2023/09/09 10:47:58;;;;;;;9.80;7.25;;;29.20;99.90;;;;;;5032915;28;20205;-41
2023/09/09 10:50:50;;;;;;;7.65;6.97;;;29.30;99.90;;;;;;5030393;28;20193;-42
2023/09/09 10:53:26;;;;;;;7.70;6.70;;;29.50;99.90;;;;;;5047208;28;20190;-40
2023/09/09 10:56:23;;;;;;;6.80;6.10;;;29.60;99.90;;;;;;5079906;28;20209;-41
2023/09/09 10:58:52;;;;;;;7.03;6.03;;;29.70;99.90;;;;;;5039345;28;20190;-42
2023/09/09 11:01:25;;;;;;;11.45;6.28;;;29.80;99.90;;;;;;5040202;28;20189;-42
2023/09/09 11:03:52;;;;;;;7.45;5.43;;;29.90;99.90;;;;;;5049579;28;20209;-42
2023/09/09 11:06:30;;;;;;;9.02;5.22;;;29.90;99.90;;;;;;5047784;28;20205;-39
2023/09/09 11:09:02;;;;;;;6.20;5.55;;;30.00;99.90;;;;;;5044483;28;20177;-43
2023/09/09 11:11:37;;;;;;;7.13;5.80;;;30.20;99.90;;;;;;5045921;28;20178;-42
2023/09/09 11:14:05;;;;;;;7.68;5.53;;;30.30;99.90;;;;;;5044875;28;20212;-42
2023/09/09 11:16:39;;;;;;;7.18;5.28;;;30.50;99.90;;;;;;5024396;28;20186;-42
2023/09/09 11:19:14;;;;;;;8.70;5.47;;;30.40;99.90;;;;;;5049252;28;20178;-40
2023/09/09 11:21:46;;;;;;;7.70;4.60;;;30.50;99.90;;;;;;5017138;28;20173;-42
2023/09/09 11:24:12;;;;;;;6.18;4.90;;;30.80;99.90;;;;;;5048260;28;20204;-42
2023/09/09 11:26:39;;;;;;;5.72;5.00;;;30.70;99.90;;;;;;5041302;28;20171;-42
2023/09/09 11:29:06;;;;;;;6.82;5.35;;;30.90;99.90;;;;;;5049431;28;20205;-41
2023/09/09 11:31:32;;;;;;;10.00;5.47;;;31.00;99.90;;;;;;5048541;28;20182;-41
2023/09/09 11:33:58;;;;;;;7.25;5.30;;;31.10;99.90;;;;;;5049199;28;20236;-43
2023/09/09 11:36:24;;;;;;;7.32;5.20;;;31.30;99.90;;;;;;5048079;28;20293;-44
2023/09/09 11:38:53;;;;;;;6.68;4.60;;;31.40;99.90;;;;;;5049082;28;20255;-40
2023/09/09 11:41:26;;;;;;;7.57;4.80;;;31.40;99.90;;;;;;5031359;28;20201;-42
2023/09/09 11:43:59;;;;;;;5.00;4.50;;;31.50;99.90;;;;;;5049078;28;20206;-38
2023/09/09 11:46:26;;;;;;;5.82;4.85;;;31.40;99.90;;;;;;5047729;28;20217;-42
2023/09/09 11:48:52;;;;;;;6.97;4.82;;;31.60;99.90;;;;;;5044938;28;20190;-42
2023/09/09 11:51:20;;;;;;;7.90;5.00;;;31.70;99.90;;;;;;5050612;28;20185;-39
2023/09/09 11:53:47;;;;;;;11.10;4.82;;;31.80;99.90;;;;;;5045801;28;20182;-43
2023/09/09 11:56:14;;;;;;;7.43;4.78;;;31.90;99.90;;;;;;5048773;28;20209;-40
2023/09/09 11:58:44;;;;;;;5.55;4.78;;;32.00;99.90;;;;;;5045466;28;20186;-41
2023/09/09 12:01:12;;;;;;;8.55;4.97;;;32.10;99.90;;;;;;5051929;28;20185;-41
2023/09/09 12:03:39;;;;;;;7.65;4.85;;;32.20;99.90;;;;;;5044740;28;20316;-43
2023/09/09 12:06:08;;;;;;;6.22;4.60;;;32.20;99.90;;;;;;5052254;28;20190;-42
2023/09/09 12:08:35;;;;;;;6.70;4.30;;;32.00;99.90;;;;;;5035000;28;20170;-40
2023/09/09 12:11:03;;;;;;;9.07;4.13;;;31.80;99.90;;;;;;5052110;28;20171;-42
2023/09/09 12:13:30;;;;;;;8.98;4.30;;;31.90;99.90;;;;;;5049027;28;20202;-41
2023/09/09 12:15:57;;;;;;;6.03;4.05;;;31.90;99.90;;;;;;5055651;28;20209;-42
2023/09/09 12:18:22;;;;;;;5.20;3.58;;;31.90;99.90;;;;;;5054508;28;20193;-42
2023/09/09 12:21:05;;;;;;;5.88;4.07;;;32.00;99.90;;;;;;5028120;28;20182;-42
2023/09/09 12:23:34;;;;;;;5.28;3.72;;;32.10;99.90;;;;;;5050604;28;20206;-43
2023/09/09 12:26:15;;;;;;;6.30;3.92;;;32.20;99.90;;;;;;5050591;28;20197;-41
2023/09/09 12:28:43;;;;;;;7.65;4.07;;;32.20;99.90;;;;;;5049185;28;20215;-41
2023/09/09 12:31:13;;;;;;;6.78;4.07;;;32.40;99.90;;;;;;5048533;28;20268;-42
2023/09/09 12:33:41;;;;;;;6.43;4.30;;;32.60;99.90;;;;;;5048507;28;20185;-42
2023/09/09 12:36:20;;;;;;;6.63;3.72;;;32.60;99.90;;;;;;5049822;28;20255;-43